sensor_id;sensor_type;location;lat;lon;timestamp;temperature;humidity
7331;DHT22;3706;49.198;7.064;2022-12-29T00:00:02;9.40;99.90
7331;DHT22;3706;49.198;7.064;2022-12-29T00:02:30;9.40;99.90
7331;DHT22;3706;49.198;7.064;2022-12-29T00:04:56;9.40;99.90
7331;DHT22;3706;49.198;7.064;2022-12-29T00:07:25;9.50;99.90
7331;DHT22;3706;49.198;7.064;2022-12-29T00:09:52;9.50;99.90
7331;DHT22;3706;49.198;7.064;2022-12-29T00:12:19;9.50;99.90
7331;DHT22;3706;49.198;7.064;2022-12-29T00:14:45;9.60;99.90
7331;DHT22;3706;49.198;7.064;2022-12-29T00:17:35;9.70;99.90
7331;DHT22;3706;49.198;7.064;2022-12-29T00:20:02;9.70;99.90
7331;DHT22;3706;49.198;7.064;2022-12-29T00:22:48;9.80;99.90
7331;DHT22;3706;49.198;7.064;2022-12-29T00:25:33;9.80;99.90
7331;DHT22;3706;49.198;7.064;2022-12-29T00:28:19;9.90;99.90
7331;DHT22;3706;49.198;7.064;2022-12-29T00:31:07;10.00;99.90
7331;DHT22;3706;49.198;7.064;2022-12-29T00:33:52;10.00;99.90
7331;DHT22;3706;49.198;7.064;2022-12-29T00:36:39;10.10;99.90
7331;DHT22;3706;49.198;7.064;2022-12-29T00:39:11;10.10;99.90
7331;DHT22;3706;49.198;7.064;2022-12-29T00:41:56;10.10;99.90
7331;DHT22;3706;49.198;7.064;2022-12-29T00:44:40;10.10;99.90
7331;DHT22;3706;49.198;7.064;2022-12-29T00:47:07;10.10;99.90
7331;DHT22;3706;49.198;7.064;2022-12-29T00:49:34;10.10;99.90
7331;DHT22;3706;49.198;7.064;2022-12-29T00:52:02;10.10;99.90
7331;DHT22;3706;49.198;7.064;2022-12-29T00:54:32;10.10;99.90
7331;DHT22;3706;49.198;7.064;2022-12-29T00:56:59;10.10;99.90
7331;DHT22;3706;49.198;7.064;2022-12-29T00:59:26;10.00;99.90
7331;DHT22;3706;49.198;7.064;2022-12-29T01:01:54;10.10;99.90
7331;DHT22;3706;49.198;7.064;2022-12-29T01:04:23;10.10;99.90
7331;DHT22;3706;49.198;7.064;2022-12-29T01:06:50;10.10;99.90
7331;DHT22;3706;49.198;7.064;2022-12-29T01:09:18;10.00;99.90
7331;DHT22;3706;49.198;7.064;2022-12-29T01:12:05;9.90;99.90
7331;DHT22;3706;49.198;7.064;2022-12-29T01:14:32;9.70;99.90
7331;DHT22;3706;49.198;7.064;2022-12-29T01:16:59;9.60;99.90
7331;DHT22;3706;49.198;7.064;2022-12-29T01:19:26;9.60;99.90
7331;DHT22;3706;49.198;7.064;2022-12-29T01:21:53;9.50;99.90
7331;DHT22;3706;49.198;7.064;2022-12-29T01:24:21;9.40;99.90
7331;DHT22;3706;49.198;7.064;2022-12-29T01:26:48;9.40;99.90
7331;DHT22;3706;49.198;7.064;2022-12-29T01:29:17;9.40;99.90
7331;DHT22;3706;49.198;7.064;2022-12-29T01:31:44;9.30;99.90
7331;DHT22;3706;49.198;7.064;2022-12-29T01:34:11;9.40;99.90
7331;DHT22;3706;49.198;7.064;2022-12-29T01:36:38;9.40;99.90
7331;DHT22;3706;49.198;7.064;2022-12-29T01:39:05;9.40;99.90
7331;DHT22;3706;49.198;7.064;2022-12-29T01:41:32;9.30;99.90
7331;DHT22;3706;49.198;7.064;2022-12-29T01:44:00;9.40;99.90
7331;DHT22;3706;49.198;7.064;2022-12-29T01:46:31;9.40;99.90
7331;DHT22;3706;49.198;7.064;2022-12-29T01:49:04;9.40;99.90
7331;DHT22;3706;49.198;7.064;2022-12-29T01:51:37;9.40;99.90
7331;DHT22;3706;49.198;7.064;2022-12-29T01:54:08;9.50;99.90
7331;DHT22;3706;49.198;7.064;2022-12-29T01:56:36;9.50;99.90
7331;DHT22;3706;49.198;7.064;2022-12-29T01:59:05;9.50;99.90
7331;DHT22;3706;49.198;7.064;2022-12-29T02:01:35;9.50;99.90
7331;DHT22;3706;49.198;7.064;2022-12-29T02:04:02;9.50;99.90
7331;DHT22;3706;49.198;7.064;2022-12-29T02:06:32;9.50;99.90
7331;DHT22;3706;49.198;7.064;2022-12-29T02:09:00;9.60;99.90
7331;DHT22;3706;49.198;7.064;2022-12-29T02:11:28;9.60;99.90
7331;DHT22;3706;49.198;7.064;2022-12-29T02:13:56;9.70;99.90
7331;DHT22;3706;49.198;7.064;2022-12-29T02:16:46;9.70;99.90
7331;DHT22;3706;49.198;7.064;2022-12-29T02:22:17;9.80;99.90
7331;DHT22;3706;49.198;7.064;2022-12-29T02:25:08;9.80;99.90
7331;DHT22;3706;49.198;7.064;2022-12-29T02:27:55;9.80;99.90
7331;DHT22;3706;49.198;7.064;2022-12-29T02:30:45;9.90;99.90
7331;DHT22;3706;49.198;7.064;2022-12-29T02:33:21;9.90;99.90
7331;DHT22;3706;49.198;7.064;2022-12-29T02:35:54;10.00;99.90
7331;DHT22;3706;49.198;7.064;2022-12-29T02:38:34;10.00;99.90
7331;DHT22;3706;49.198;7.064;2022-12-29T02:41:09;10.10;99.90
7331;DHT22;3706;49.198;7.064;2022-12-29T02:43:41;10.10;99.90
7331;DHT22;3706;49.198;7.064;2022-12-29T02:46:18;10.10;99.90
7331;DHT22;3706;49.198;7.064;2022-12-29T02:48:50;10.10;99.90
7331;DHT22;3706;49.198;7.064;2022-12-29T02:51:20;10.20;99.90
7331;DHT22;3706;49.198;7.064;2022-12-29T02:53:50;10.20;99.90
7331;DHT22;3706;49.198;7.064;2022-12-29T02:56:36;10.30;99.90
7331;DHT22;3706;49.198;7.064;2022-12-29T02:59:03;10.30;99.90
7331;DHT22;3706;49.198;7.064;2022-12-29T03:01:45;10.30;99.90
7331;DHT22;3706;49.198;7.064;2022-12-29T03:04:34;10.30;99.90
7331;DHT22;3706;49.198;7.064;2022-12-29T03:07:11;10.20;99.90
7331;DHT22;3706;49.198;7.064;2022-12-29T03:09:49;10.30;99.90
7331;DHT22;3706;49.198;7.064;2022-12-29T03:12:25;10.30;99.90
7331;DHT22;3706;49.198;7.064;2022-12-29T03:15:18;10.30;99.90
7331;DHT22;3706;49.198;7.064;2022-12-29T03:18:09;10.30;99.90
7331;DHT22;3706;49.198;7.064;2022-12-29T03:20:41;10.40;99.90
7331;DHT22;3706;49.198;7.064;2022-12-29T03:23:10;10.50;99.90
7331;DHT22;3706;49.198;7.064;2022-12-29T03:25:41;10.50;99.90
7331;DHT22;3706;49.198;7.064;2022-12-29T03:28:13;10.50;99.90
7331;DHT22;3706;49.198;7.064;2022-12-29T03:30:43;10.40;99.90
7331;DHT22;3706;49.198;7.064;2022-12-29T03:33:13;10.40;99.90
7331;DHT22;3706;49.198;7.064;2022-12-29T03:35:42;10.40;99.90
7331;DHT22;3706;49.198;7.064;2022-12-29T03:38:14;10.50;99.90
7331;DHT22;3706;49.198;7.064;2022-12-29T03:40:44;10.50;99.90
7331;DHT22;3706;49.198;7.064;2022-12-29T03:43:13;10.50;99.90
7331;DHT22;3706;49.198;7.064;2022-12-29T03:45:40;10.50;99.90
7331;DHT22;3706;49.198;7.064;2022-12-29T03:48:07;10.50;99.90
7331;DHT22;3706;49.198;7.064;2022-12-29T03:50:35;10.50;99.90
7331;DHT22;3706;49.198;7.064;2022-12-29T03:53:02;10.50;99.90
7331;DHT22;3706;49.198;7.064;2022-12-29T03:55:29;10.50;99.90
7331;DHT22;3706;49.198;7.064;2022-12-29T03:57:56;10.50;99.90
7331;DHT22;3706;49.198;7.064;2022-12-29T04:00:23;10.40;99.90
7331;DHT22;3706;49.198;7.064;2022-12-29T04:02:50;10.40;99.90
7331;DHT22;3706;49.198;7.064;2022-12-29T04:05:17;10.40;99.90
7331;DHT22;3706;49.198;7.064;2022-12-29T04:07:45;10.40;99.90
7331;DHT22;3706;49.198;7.064;2022-12-29T04:10:12;10.40;99.90
7331;DHT22;3706;49.198;7.064;2022-12-29T04:12:39;10.40;99.90
7331;DHT22;3706;49.198;7.064;2022-12-29T04:15:08;10.40;99.90
7331;DHT22;3706;49.198;7.064;2022-12-29T04:17:35;10.50;99.90
7331;DHT22;3706;49.198;7.064;2022-12-29T04:20:02;10.50;99.90
7331;DHT22;3706;49.198;7.064;2022-12-29T04:22:45;10.60;99.90
7331;DHT22;3706;49.198;7.064;2022-12-29T04:25:11;10.50;99.90
7331;DHT22;3706;49.198;7.064;2022-12-29T04:27:38;10.60;99.90
7331;DHT22;3706;49.198;7.064;2022-12-29T04:30:07;10.60;99.90
7331;DHT22;3706;49.198;7.064;2022-12-29T04:33:44;10.60;99.90
7331;DHT22;3706;49.198;7.064;2022-12-29T04:36:11;10.60;99.90
7331;DHT22;3706;49.198;7.064;2022-12-29T04:38:38;10.60;99.90
7331;DHT22;3706;49.198;7.064;2022-12-29T04:41:05;10.50;99.90
7331;DHT22;3706;49.198;7.064;2022-12-29T04:43:33;10.50;99.90
7331;DHT22;3706;49.198;7.064;2022-12-29T04:46:00;10.50;99.90
7331;DHT22;3706;49.198;7.064;2022-12-29T04:48:27;10.50;99.90
7331;DHT22;3706;49.198;7.064;2022-12-29T04:50:55;10.40;99.90
7331;DHT22;3706;49.198;7.064;2022-12-29T04:53:22;10.40;99.90
7331;DHT22;3706;49.198;7.064;2022-12-29T04:55:50;10.40;99.90
7331;DHT22;3706;49.198;7.064;2022-12-29T04:58:18;10.30;99.90
7331;DHT22;3706;49.198;7.064;2022-12-29T05:00:45;10.30;99.90
7331;DHT22;3706;49.198;7.064;2022-12-29T05:03:13;10.30;99.90
7331;DHT22;3706;49.198;7.064;2022-12-29T05:05:40;10.20;99.90
7331;DHT22;3706;49.198;7.064;2022-12-29T05:08:08;10.20;99.90
7331;DHT22;3706;49.198;7.064;2022-12-29T05:10:36;10.00;99.90
7331;DHT22;3706;49.198;7.064;2022-12-29T05:13:03;10.00;99.90
7331;DHT22;3706;49.198;7.064;2022-12-29T05:15:32;10.00;99.90
7331;DHT22;3706;49.198;7.064;2022-12-29T05:17:59;10.00;99.90
7331;DHT22;3706;49.198;7.064;2022-12-29T05:20:26;10.10;99.90
7331;DHT22;3706;49.198;7.064;2022-12-29T05:22:53;10.20;99.90
7331;DHT22;3706;49.198;7.064;2022-12-29T05:25:22;10.30;99.90
7331;DHT22;3706;49.198;7.064;2022-12-29T05:27:49;10.30;99.90
7331;DHT22;3706;49.198;7.064;2022-12-29T05:30:16;10.40;99.90
7331;DHT22;3706;49.198;7.064;2022-12-29T05:32:43;10.40;99.90
7331;DHT22;3706;49.198;7.064;2022-12-29T05:35:10;10.60;99.90
7331;DHT22;3706;49.198;7.064;2022-12-29T05:37:37;10.60;99.90
7331;DHT22;3706;49.198;7.064;2022-12-29T05:40:05;10.70;99.90
7331;DHT22;3706;49.198;7.064;2022-12-29T05:42:34;10.70;99.90
7331;DHT22;3706;49.198;7.064;2022-12-29T05:45:01;10.80;99.90
7331;DHT22;3706;49.198;7.064;2022-12-29T05:47:28;10.80;99.90
7331;DHT22;3706;49.198;7.064;2022-12-29T05:49:55;10.80;99.90
7331;DHT22;3706;49.198;7.064;2022-12-29T05:52:21;10.80;99.90
7331;DHT22;3706;49.198;7.064;2022-12-29T05:54:48;10.80;99.90
7331;DHT22;3706;49.198;7.064;2022-12-29T05:57:15;10.90;99.90
7331;DHT22;3706;49.198;7.064;2022-12-29T05:59:44;11.00;99.90
7331;DHT22;3706;49.198;7.064;2022-12-29T06:02:11;11.00;99.90
7331;DHT22;3706;49.198;7.064;2022-12-29T06:04:44;11.00;99.90
7331;DHT22;3706;49.198;7.064;2022-12-29T06:07:11;11.00;99.90
7331;DHT22;3706;49.198;7.064;2022-12-29T06:09:38;11.00;99.90
7331;DHT22;3706;49.198;7.064;2022-12-29T06:12:06;11.00;99.90
7331;DHT22;3706;49.198;7.064;2022-12-29T06:14:33;11.00;99.90
7331;DHT22;3706;49.198;7.064;2022-12-29T06:17:01;11.00;99.90
7331;DHT22;3706;49.198;7.064;2022-12-29T06:19:28;11.00;99.90
7331;DHT22;3706;49.198;7.064;2022-12-29T06:21:57;11.00;99.90
7331;DHT22;3706;49.198;7.064;2022-12-29T06:24:24;11.00;99.90
7331;DHT22;3706;49.198;7.064;2022-12-29T06:26:51;11.10;99.90
7331;DHT22;3706;49.198;7.064;2022-12-29T06:29:20;11.10;99.90
7331;DHT22;3706;49.198;7.064;2022-12-29T06:31:48;11.10;99.90
7331;DHT22;3706;49.198;7.064;2022-12-29T06:34:18;11.20;99.90
7331;DHT22;3706;49.198;7.064;2022-12-29T06:36:45;11.20;99.90
7331;DHT22;3706;49.198;7.064;2022-12-29T06:39:12;11.10;99.90
7331;DHT22;3706;49.198;7.064;2022-12-29T06:41:39;11.20;99.90
7331;DHT22;3706;49.198;7.064;2022-12-29T06:44:06;11.20;99.90
7331;DHT22;3706;49.198;7.064;2022-12-29T06:46:33;11.20;99.90
7331;DHT22;3706;49.198;7.064;2022-12-29T06:49:00;11.30;99.90
7331;DHT22;3706;49.198;7.064;2022-12-29T06:51:29;11.30;99.90
7331;DHT22;3706;49.198;7.064;2022-12-29T06:53:56;11.20;99.90
7331;DHT22;3706;49.198;7.064;2022-12-29T06:56:23;11.20;99.90
7331;DHT22;3706;49.198;7.064;2022-12-29T06:58:50;11.20;99.90
7331;DHT22;3706;49.198;7.064;2022-12-29T07:01:17;11.20;99.90
7331;DHT22;3706;49.198;7.064;2022-12-29T07:03:44;11.10;99.90
7331;DHT22;3706;49.198;7.064;2022-12-29T07:06:11;11.10;99.90
7331;DHT22;3706;49.198;7.064;2022-12-29T07:08:40;11.10;99.90
7331;DHT22;3706;49.198;7.064;2022-12-29T07:11:07;11.10;99.90
7331;DHT22;3706;49.198;7.064;2022-12-29T07:13:34;11.10;99.90
7331;DHT22;3706;49.198;7.064;2022-12-29T07:16:05;11.10;99.90
7331;DHT22;3706;49.198;7.064;2022-12-29T07:18:32;11.20;99.90
7331;DHT22;3706;49.198;7.064;2022-12-29T07:20:59;11.20;99.90
7331;DHT22;3706;49.198;7.064;2022-12-29T07:23:26;11.20;99.90
7331;DHT22;3706;49.198;7.064;2022-12-29T07:26:00;11.30;99.90
7331;DHT22;3706;49.198;7.064;2022-12-29T07:28:27;11.30;99.90
7331;DHT22;3706;49.198;7.064;2022-12-29T07:30:54;11.30;99.90
7331;DHT22;3706;49.198;7.064;2022-12-29T07:33:21;11.30;99.90
7331;DHT22;3706;49.198;7.064;2022-12-29T07:35:49;11.20;99.90
7331;DHT22;3706;49.198;7.064;2022-12-29T07:38:16;11.10;99.90
7331;DHT22;3706;49.198;7.064;2022-12-29T07:40:43;11.10;99.90
7331;DHT22;3706;49.198;7.064;2022-12-29T07:43:11;11.00;99.90
7331;DHT22;3706;49.198;7.064;2022-12-29T07:45:38;11.00;99.90
7331;DHT22;3706;49.198;7.064;2022-12-29T07:48:06;11.00;99.90
7331;DHT22;3706;49.198;7.064;2022-12-29T07:50:34;10.90;99.90
7331;DHT22;3706;49.198;7.064;2022-12-29T07:53:01;10.80;99.90
7331;DHT22;3706;49.198;7.064;2022-12-29T07:55:28;10.70;99.90
7331;DHT22;3706;49.198;7.064;2022-12-29T07:57:56;10.60;99.90
7331;DHT22;3706;49.198;7.064;2022-12-29T08:00:24;10.50;99.90
7331;DHT22;3706;49.198;7.064;2022-12-29T08:02:51;10.50;99.90
7331;DHT22;3706;49.198;7.064;2022-12-29T08:05:19;10.30;99.90
7331;DHT22;3706;49.198;7.064;2022-12-29T08:07:46;10.30;99.90
7331;DHT22;3706;49.198;7.064;2022-12-29T08:10:14;10.20;99.90
7331;DHT22;3706;49.198;7.064;2022-12-29T08:12:42;10.20;99.90
7331;DHT22;3706;49.198;7.064;2022-12-29T08:15:10;10.10;99.90
7331;DHT22;3706;49.198;7.064;2022-12-29T08:17:39;10.10;99.90
7331;DHT22;3706;49.198;7.064;2022-12-29T08:20:07;10.10;99.90
7331;DHT22;3706;49.198;7.064;2022-12-29T08:22:34;10.20;99.90
7331;DHT22;3706;49.198;7.064;2022-12-29T08:25:01;10.10;99.90
7331;DHT22;3706;49.198;7.064;2022-12-29T08:27:31;10.20;99.90
7331;DHT22;3706;49.198;7.064;2022-12-29T08:29:58;10.20;99.90
7331;DHT22;3706;49.198;7.064;2022-12-29T08:32:26;10.20;99.90
7331;DHT22;3706;49.198;7.064;2022-12-29T08:34:56;10.20;99.90
7331;DHT22;3706;49.198;7.064;2022-12-29T08:37:23;10.20;99.90
7331;DHT22;3706;49.198;7.064;2022-12-29T08:39:50;10.20;99.90
7331;DHT22;3706;49.198;7.064;2022-12-29T08:42:17;10.20;99.90
7331;DHT22;3706;49.198;7.064;2022-12-29T08:44:44;10.20;99.90
7331;DHT22;3706;49.198;7.064;2022-12-29T08:47:11;10.10;99.90
7331;DHT22;3706;49.198;7.064;2022-12-29T08:49:38;10.10;99.90
7331;DHT22;3706;49.198;7.064;2022-12-29T08:52:07;10.10;99.90
7331;DHT22;3706;49.198;7.064;2022-12-29T08:54:35;10.10;99.90
7331;DHT22;3706;49.198;7.064;2022-12-29T08:57:02;10.20;99.90
7331;DHT22;3706;49.198;7.064;2022-12-29T08:59:29;10.30;99.90
7331;DHT22;3706;49.198;7.064;2022-12-29T09:01:56;10.50;99.90
7331;DHT22;3706;49.198;7.064;2022-12-29T09:04:24;10.50;99.90
7331;DHT22;3706;49.198;7.064;2022-12-29T09:06:52;10.60;99.90
7331;DHT22;3706;49.198;7.064;2022-12-29T09:09:24;10.70;99.90
7331;DHT22;3706;49.198;7.064;2022-12-29T09:11:51;10.80;99.90
7331;DHT22;3706;49.198;7.064;2022-12-29T09:14:18;11.00;99.90
7331;DHT22;3706;49.198;7.064;2022-12-29T09:16:47;11.10;99.90
7331;DHT22;3706;49.198;7.064;2022-12-29T09:19:31;11.20;99.90
7331;DHT22;3706;49.198;7.064;2022-12-29T09:21:58;11.50;99.90
7331;DHT22;3706;49.198;7.064;2022-12-29T09:24:27;11.60;99.90
7331;DHT22;3706;49.198;7.064;2022-12-29T09:26:55;11.70;99.90
7331;DHT22;3706;49.198;7.064;2022-12-29T09:29:25;11.80;99.90
7331;DHT22;3706;49.198;7.064;2022-12-29T09:31:52;11.80;99.90
7331;DHT22;3706;49.198;7.064;2022-12-29T09:34:19;11.80;99.90
7331;DHT22;3706;49.198;7.064;2022-12-29T09:36:47;11.80;99.90
7331;DHT22;3706;49.198;7.064;2022-12-29T09:39:17;11.70;99.90
7331;DHT22;3706;49.198;7.064;2022-12-29T09:41:51;11.70;99.90
7331;DHT22;3706;49.198;7.064;2022-12-29T09:44:25;11.80;99.90
7331;DHT22;3706;49.198;7.064;2022-12-29T09:46:56;11.70;99.90
7331;DHT22;3706;49.198;7.064;2022-12-29T09:49:28;11.70;99.90
7331;DHT22;3706;49.198;7.064;2022-12-29T09:52:01;11.50;99.90
7331;DHT22;3706;49.198;7.064;2022-12-29T09:54:39;11.20;99.90
7331;DHT22;3706;49.198;7.064;2022-12-29T09:57:23;10.90;99.90
7331;DHT22;3706;49.198;7.064;2022-12-29T09:59:54;10.60;99.90
7331;DHT22;3706;49.198;7.064;2022-12-29T10:02:36;10.40;99.90
7331;DHT22;3706;49.198;7.064;2022-12-29T10:05:18;10.30;99.90
7331;DHT22;3706;49.198;7.064;2022-12-29T10:07:53;10.20;99.90
7331;DHT22;3706;49.198;7.064;2022-12-29T10:10:35;10.30;99.90
7331;DHT22;3706;49.198;7.064;2022-12-29T10:13:18;10.30;99.90
7331;DHT22;3706;49.198;7.064;2022-12-29T10:16:00;10.40;99.90
7331;DHT22;3706;49.198;7.064;2022-12-29T10:18:53;10.40;99.90
7331;DHT22;3706;49.198;7.064;2022-12-29T10:21:33;10.50;99.90
7331;DHT22;3706;49.198;7.064;2022-12-29T10:24:09;10.60;99.90
7331;DHT22;3706;49.198;7.064;2022-12-29T10:26:40;10.80;99.90
7331;DHT22;3706;49.198;7.064;2022-12-29T10:29:15;10.90;99.90
7331;DHT22;3706;49.198;7.064;2022-12-29T10:34:18;11.00;99.90
7331;DHT22;3706;49.198;7.064;2022-12-29T10:36:48;11.00;99.90
7331;DHT22;3706;49.198;7.064;2022-12-29T10:39:21;11.00;99.90
7331;DHT22;3706;49.198;7.064;2022-12-29T10:41:52;11.10;99.90
7331;DHT22;3706;49.198;7.064;2022-12-29T10:44:24;11.10;99.90
7331;DHT22;3706;49.198;7.064;2022-12-29T10:46:57;11.20;99.90
7331;DHT22;3706;49.198;7.064;2022-12-29T10:49:27;11.20;99.90
7331;DHT22;3706;49.198;7.064;2022-12-29T10:51:58;11.20;99.90
7331;DHT22;3706;49.198;7.064;2022-12-29T10:54:29;11.30;99.90
7331;DHT22;3706;49.198;7.064;2022-12-29T10:57:01;11.40;99.90
7331;DHT22;3706;49.198;7.064;2022-12-29T10:59:31;11.40;99.90
7331;DHT22;3706;49.198;7.064;2022-12-29T11:02:13;11.40;99.90
7331;DHT22;3706;49.198;7.064;2022-12-29T11:04:47;11.40;99.90
7331;DHT22;3706;49.198;7.064;2022-12-29T11:07:19;11.50;99.90
7331;DHT22;3706;49.198;7.064;2022-12-29T11:09:47;11.50;99.90
7331;DHT22;3706;49.198;7.064;2022-12-29T11:12:23;11.60;99.90
7331;DHT22;3706;49.198;7.064;2022-12-29T11:15:14;11.60;99.90
7331;DHT22;3706;49.198;7.064;2022-12-29T11:17:45;11.70;99.90
7331;DHT22;3706;49.198;7.064;2022-12-29T11:20:28;11.70;99.90
7331;DHT22;3706;49.198;7.064;2022-12-29T11:22:55;11.70;99.90
7331;DHT22;3706;49.198;7.064;2022-12-29T11:25:22;11.70;99.90
7331;DHT22;3706;49.198;7.064;2022-12-29T11:27:56;11.70;99.90
7331;DHT22;3706;49.198;7.064;2022-12-29T11:30:27;11.70;99.90
7331;DHT22;3706;49.198;7.064;2022-12-29T11:32:55;11.80;99.90
7331;DHT22;3706;49.198;7.064;2022-12-29T11:35:34;11.80;99.90
7331;DHT22;3706;49.198;7.064;2022-12-29T11:38:02;11.80;99.90
7331;DHT22;3706;49.198;7.064;2022-12-29T11:40:31;11.80;99.90
7331;DHT22;3706;49.198;7.064;2022-12-29T11:43:01;11.60;99.90
7331;DHT22;3706;49.198;7.064;2022-12-29T11:45:33;11.30;99.90
7331;DHT22;3706;49.198;7.064;2022-12-29T11:48:05;11.10;99.90
7331;DHT22;3706;49.198;7.064;2022-12-29T11:50:35;10.90;99.90
7331;DHT22;3706;49.198;7.064;2022-12-29T11:53:06;10.60;99.90
7331;DHT22;3706;49.198;7.064;2022-12-29T11:55:33;10.40;99.90
7331;DHT22;3706;49.198;7.064;2022-12-29T11:58:02;10.20;99.90
7331;DHT22;3706;49.198;7.064;2022-12-29T12:00:34;10.10;99.90
7331;DHT22;3706;49.198;7.064;2022-12-29T12:03:04;10.00;99.90
7331;DHT22;3706;49.198;7.064;2022-12-29T12:05:37;9.90;99.90
7331;DHT22;3706;49.198;7.064;2022-12-29T12:08:15;9.80;99.90
7331;DHT22;3706;49.198;7.064;2022-12-29T12:10:46;9.70;99.90
7331;DHT22;3706;49.198;7.064;2022-12-29T12:13:20;9.60;99.90
7331;DHT22;3706;49.198;7.064;2022-12-29T12:15:54;9.50;99.90
7331;DHT22;3706;49.198;7.064;2022-12-29T12:18:34;9.50;99.90
7331;DHT22;3706;49.198;7.064;2022-12-29T12:21:13;9.40;99.90
7331;DHT22;3706;49.198;7.064;2022-12-29T12:23:53;9.40;99.90
7331;DHT22;3706;49.198;7.064;2022-12-29T12:26:30;9.30;99.90
7331;DHT22;3706;49.198;7.064;2022-12-29T12:29:04;9.30;99.90
7331;DHT22;3706;49.198;7.064;2022-12-29T12:31:43;9.30;99.90
7331;DHT22;3706;49.198;7.064;2022-12-29T12:34:16;9.30;99.90
7331;DHT22;3706;49.198;7.064;2022-12-29T12:37:15;9.30;99.90
7331;DHT22;3706;49.198;7.064;2022-12-29T12:40:02;9.30;99.90
7331;DHT22;3706;49.198;7.064;2022-12-29T12:42:42;9.30;99.90
7331;DHT22;3706;49.198;7.064;2022-12-29T12:45:33;9.30;99.90
7331;DHT22;3706;49.198;7.064;2022-12-29T12:48:22;9.40;99.90
7331;DHT22;3706;49.198;7.064;2022-12-29T12:50:59;9.40;99.90
7331;DHT22;3706;49.198;7.064;2022-12-29T12:53:49;9.40;99.90
7331;DHT22;3706;49.198;7.064;2022-12-29T12:56:52;9.40;99.90
7331;DHT22;3706;49.198;7.064;2022-12-29T12:59:37;9.40;99.90
7331;DHT22;3706;49.198;7.064;2022-12-29T13:02:27;9.40;99.90
7331;DHT22;3706;49.198;7.064;2022-12-29T13:05:22;9.40;99.90
7331;DHT22;3706;49.198;7.064;2022-12-29T13:08:00;9.30;99.90
7331;DHT22;3706;49.198;7.064;2022-12-29T13:10:36;9.30;99.90
7331;DHT22;3706;49.198;7.064;2022-12-29T13:13:33;9.30;99.90
7331;DHT22;3706;49.198;7.064;2022-12-29T13:16:06;9.30;99.90
7331;DHT22;3706;49.198;7.064;2022-12-29T13:18:44;9.30;99.90
7331;DHT22;3706;49.198;7.064;2022-12-29T13:21:25;9.30;99.90
7331;DHT22;3706;49.198;7.064;2022-12-29T13:23:58;9.40;99.90
7331;DHT22;3706;49.198;7.064;2022-12-29T13:26:32;9.40;99.90
7331;DHT22;3706;49.198;7.064;2022-12-29T13:29:10;9.40;99.90
7331;DHT22;3706;49.198;7.064;2022-12-29T13:31:49;9.30;99.90
7331;DHT22;3706;49.198;7.064;2022-12-29T13:34:23;9.30;99.90
7331;DHT22;3706;49.198;7.064;2022-12-29T13:36:55;9.20;99.90
7331;DHT22;3706;49.198;7.064;2022-12-29T13:39:26;9.30;99.90
7331;DHT22;3706;49.198;7.064;2022-12-29T13:41:55;9.30;99.90
7331;DHT22;3706;49.198;7.064;2022-12-29T13:44:25;9.30;99.90
7331;DHT22;3706;49.198;7.064;2022-12-29T13:46:55;9.30;99.90
7331;DHT22;3706;49.198;7.064;2022-12-29T13:49:23;9.40;99.90
7331;DHT22;3706;49.198;7.064;2022-12-29T13:51:52;9.50;99.90
7331;DHT22;3706;49.198;7.064;2022-12-29T13:54:29;9.50;99.90
7331;DHT22;3706;49.198;7.064;2022-12-29T13:57:05;9.50;99.90
7331;DHT22;3706;49.198;7.064;2022-12-29T13:59:40;9.50;99.90
7331;DHT22;3706;49.198;7.064;2022-12-29T14:02:20;9.50;99.90
7331;DHT22;3706;49.198;7.064;2022-12-29T14:04:59;9.40;99.90
7331;DHT22;3706;49.198;7.064;2022-12-29T14:07:27;9.30;99.90
7331;DHT22;3706;49.198;7.064;2022-12-29T14:09:57;9.30;99.90
7331;DHT22;3706;49.198;7.064;2022-12-29T14:12:36;9.30;99.90
7331;DHT22;3706;49.198;7.064;2022-12-29T14:15:19;9.30;99.90
7331;DHT22;3706;49.198;7.064;2022-12-29T14:18:02;9.20;99.90
7331;DHT22;3706;49.198;7.064;2022-12-29T14:20:30;9.20;99.90
7331;DHT22;3706;49.198;7.064;2022-12-29T14:22:59;9.10;99.90
7331;DHT22;3706;49.198;7.064;2022-12-29T14:25:57;9.10;99.90
7331;DHT22;3706;49.198;7.064;2022-12-29T14:28:26;9.00;99.90
7331;DHT22;3706;49.198;7.064;2022-12-29T14:30:55;9.00;99.90
7331;DHT22;3706;49.198;7.064;2022-12-29T14:33:28;8.90;99.90
7331;DHT22;3706;49.198;7.064;2022-12-29T14:35:56;8.90;99.90
7331;DHT22;3706;49.198;7.064;2022-12-29T14:38:28;8.90;99.90
7331;DHT22;3706;49.198;7.064;2022-12-29T14:44:10;8.90;99.90
7331;DHT22;3706;49.198;7.064;2022-12-29T14:46:56;8.90;99.90
7331;DHT22;3706;49.198;7.064;2022-12-29T14:49:26;8.90;99.90
7331;DHT22;3706;49.198;7.064;2022-12-29T14:52:04;9.00;99.90
7331;DHT22;3706;49.198;7.064;2022-12-29T14:54:53;9.00;99.90
7331;DHT22;3706;49.198;7.064;2022-12-29T14:57:27;9.00;99.90
7331;DHT22;3706;49.198;7.064;2022-12-29T15:00:04;9.00;99.90
7331;DHT22;3706;49.198;7.064;2022-12-29T15:02:35;9.00;99.90
7331;DHT22;3706;49.198;7.064;2022-12-29T15:05:05;9.00;99.90
7331;DHT22;3706;49.198;7.064;2022-12-29T15:07:35;9.00;99.90
7331;DHT22;3706;49.198;7.064;2022-12-29T15:10:06;9.00;99.90
7331;DHT22;3706;49.198;7.064;2022-12-29T15:12:38;9.00;99.90
7331;DHT22;3706;49.198;7.064;2022-12-29T15:15:20;9.00;99.90
7331;DHT22;3706;49.198;7.064;2022-12-29T15:17:48;9.00;99.90
7331;DHT22;3706;49.198;7.064;2022-12-29T15:20:21;9.00;99.90
7331;DHT22;3706;49.198;7.064;2022-12-29T15:22:52;9.00;99.90
7331;DHT22;3706;49.198;7.064;2022-12-29T15:25:19;9.00;99.90
7331;DHT22;3706;49.198;7.064;2022-12-29T15:27:49;9.10;99.90
7331;DHT22;3706;49.198;7.064;2022-12-29T15:30:19;9.10;99.90
7331;DHT22;3706;49.198;7.064;2022-12-29T15:32:48;9.00;99.90
7331;DHT22;3706;49.198;7.064;2022-12-29T15:35:25;9.00;99.90
7331;DHT22;3706;49.198;7.064;2022-12-29T15:37:52;9.00;99.90
7331;DHT22;3706;49.198;7.064;2022-12-29T15:40:30;9.00;99.90
7331;DHT22;3706;49.198;7.064;2022-12-29T15:43:24;8.90;99.90
7331;DHT22;3706;49.198;7.064;2022-12-29T15:45:55;8.90;99.90
7331;DHT22;3706;49.198;7.064;2022-12-29T15:48:23;8.90;99.90
7331;DHT22;3706;49.198;7.064;2022-12-29T15:50:51;8.90;99.90
7331;DHT22;3706;49.198;7.064;2022-12-29T15:53:21;8.90;99.90
7331;DHT22;3706;49.198;7.064;2022-12-29T15:55:54;8.90;99.90
7331;DHT22;3706;49.198;7.064;2022-12-29T15:58:23;8.80;99.90
7331;DHT22;3706;49.198;7.064;2022-12-29T16:00:52;8.80;99.90
7331;DHT22;3706;49.198;7.064;2022-12-29T16:03:21;8.80;99.90
7331;DHT22;3706;49.198;7.064;2022-12-29T16:05:51;8.80;99.90
7331;DHT22;3706;49.198;7.064;2022-12-29T16:08:27;8.80;99.90
7331;DHT22;3706;49.198;7.064;2022-12-29T16:10:58;8.80;99.90
7331;DHT22;3706;49.198;7.064;2022-12-29T16:13:28;8.80;99.90
7331;DHT22;3706;49.198;7.064;2022-12-29T16:16:00;8.80;99.90
7331;DHT22;3706;49.198;7.064;2022-12-29T16:18:32;8.80;99.90
7331;DHT22;3706;49.198;7.064;2022-12-29T16:21:01;8.80;99.90
7331;DHT22;3706;49.198;7.064;2022-12-29T16:23:29;8.80;99.90
7331;DHT22;3706;49.198;7.064;2022-12-29T16:25:57;8.70;99.90
7331;DHT22;3706;49.198;7.064;2022-12-29T16:28:26;8.70;99.90
7331;DHT22;3706;49.198;7.064;2022-12-29T16:30:59;8.80;99.90
7331;DHT22;3706;49.198;7.064;2022-12-29T16:33:45;8.80;99.90
7331;DHT22;3706;49.198;7.064;2022-12-29T16:36:23;8.70;99.90
7331;DHT22;3706;49.198;7.064;2022-12-29T16:38:50;8.70;99.90
7331;DHT22;3706;49.198;7.064;2022-12-29T16:41:29;8.60;99.90
7331;DHT22;3706;49.198;7.064;2022-12-29T16:44:11;8.60;99.90
7331;DHT22;3706;49.198;7.064;2022-12-29T16:46:44;8.60;99.90